sensor_id;sensor_type;location;lat;lon;timestamp;pressure;altitude;pressure_sealevel;temperature;humidity
42705;BME280;28342;42.594;23.414;2022-07-12T00:01:45;94995.50;;;12.55;71.26
42705;BME280;28342;42.594;23.414;2022-07-12T00:04:10;95001.88;;;12.46;71.96
42705;BME280;28342;42.594;23.414;2022-07-12T00:06:36;94997.59;;;12.36;71.44
42705;BME280;28342;42.594;23.414;2022-07-12T00:09:01;94995.78;;;12.45;71.38
42705;BME280;28342;42.594;23.414;2022-07-12T00:11:27;95002.28;;;12.31;71.23
42705;BME280;28342;42.594;23.414;2022-07-12T00:13:52;95003.75;;;12.14;70.91
42705;BME280;28342;42.594;23.414;2022-07-12T00:16:18;94999.78;;;12.03;72.33
42705;BME280;28342;42.594;23.414;2022-07-12T00:18:43;95012.06;;;12.21;69.67
42705;BME280;28342;42.594;23.414;2022-07-12T00:21:08;94999.53;;;12.13;71.59
42705;BME280;28342;42.594;23.414;2022-07-12T00:23:34;95011.44;;;12.16;71.88
42705;BME280;28342;42.594;23.414;2022-07-12T00:26:00;94987.31;;;12.12;68.37
42705;BME280;28342;42.594;23.414;2022-07-12T00:28:32;95000.63;;;12.12;67.89
42705;BME280;28342;42.594;23.414;2022-07-12T00:30:57;95003.03;;;12.00;69.45
42705;BME280;28342;42.594;23.414;2022-07-12T00:33:23;95001.34;;;12.04;71.16
42705;BME280;28342;42.594;23.414;2022-07-12T00:35:49;94997.84;;;11.95;70.49
42705;BME280;28342;42.594;23.414;2022-07-12T00:38:14;94995.25;;;12.04;70.57
42705;BME280;28342;42.594;23.414;2022-07-12T00:40:40;94988.13;;;11.77;68.13
42705;BME280;28342;42.594;23.414;2022-07-12T00:43:05;94992.19;;;11.52;68.83
42705;BME280;28342;42.594;23.414;2022-07-12T00:45:31;94993.81;;;11.61;68.02
42705;BME280;28342;42.594;23.414;2022-07-12T00:47:56;94995.31;;;11.54;69.17
42705;BME280;28342;42.594;23.414;2022-07-12T00:50:23;94999.00;;;11.44;69.38
42705;BME280;28342;42.594;23.414;2022-07-12T00:52:51;94996.72;;;11.51;70.98
42705;BME280;28342;42.594;23.414;2022-07-12T00:55:19;94998.38;;;11.47;70.55
42705;BME280;28342;42.594;23.414;2022-07-12T00:57:46;95000.53;;;11.59;70.71
42705;BME280;28342;42.594;23.414;2022-07-12T01:00:21;95002.09;;;11.60;70.71
42705;BME280;28342;42.594;23.414;2022-07-12T01:02:46;94997.38;;;11.57;71.99
42705;BME280;28342;42.594;23.414;2022-07-12T01:05:12;94999.13;;;11.61;71.26
42705;BME280;28342;42.594;23.414;2022-07-12T01:07:38;94978.53;;;11.45;72.20
42705;BME280;28342;42.594;23.414;2022-07-12T01:10:05;94984.25;;;11.38;70.14
42705;BME280;28342;42.594;23.414;2022-07-12T01:12:31;94986.91;;;11.38;69.67
42705;BME280;28342;42.594;23.414;2022-07-12T01:14:58;95002.16;;;11.32;70.10
42705;BME280;28342;42.594;23.414;2022-07-12T01:17:26;94997.19;;;11.53;70.21
42705;BME280;28342;42.594;23.414;2022-07-12T01:19:53;94983.66;;;11.41;69.96
42705;BME280;28342;42.594;23.414;2022-07-12T01:22:19;94991.34;;;11.29;70.45
42705;BME280;28342;42.594;23.414;2022-07-12T01:24:46;94996.97;;;11.27;70.21
42705;BME280;28342;42.594;23.414;2022-07-12T01:27:12;94993.13;;;11.33;70.62
42705;BME280;28342;42.594;23.414;2022-07-12T01:29:38;94990.00;;;11.18;71.17
42705;BME280;28342;42.594;23.414;2022-07-12T01:32:06;94990.03;;;11.04;71.44
42705;BME280;28342;42.594;23.414;2022-07-12T01:34:53;95001.75;;;11.03;71.73
42705;BME280;28342;42.594;23.414;2022-07-12T01:37:21;94971.97;;;10.78;71.64
42705;BME280;28342;42.594;23.414;2022-07-12T01:39:49;94976.50;;;10.92;72.06
42705;BME280;28342;42.594;23.414;2022-07-12T01:42:15;94986.22;;;10.96;70.97
42705;BME280;28342;42.594;23.414;2022-07-12T01:44:41;94992.78;;;10.99;72.14
42705;BME280;28342;42.594;23.414;2022-07-12T01:47:06;94985.53;;;11.04;71.49
42705;BME280;28342;42.594;23.414;2022-07-12T01:49:32;94961.16;;;10.89;71.62
42705;BME280;28342;42.594;23.414;2022-07-12T01:51:58;94986.31;;;11.05;71.46
42705;BME280;28342;42.594;23.414;2022-07-12T01:54:24;94976.84;;;10.99;72.65
42705;BME280;28342;42.594;23.414;2022-07-12T01:56:50;94988.88;;;10.96;73.29
42705;BME280;28342;42.594;23.414;2022-07-12T01:59:15;94991.19;;;11.12;72.48
42705;BME280;28342;42.594;23.414;2022-07-12T02:01:41;94988.56;;;10.84;71.51
42705;BME280;28342;42.594;23.414;2022-07-12T02:04:07;94988.09;;;10.82;71.82
42705;BME280;28342;42.594;23.414;2022-07-12T02:06:33;94983.97;;;10.76;72.50
42705;BME280;28342;42.594;23.414;2022-07-12T02:08:58;94989.16;;;10.81;72.09
42705;BME280;28342;42.594;23.414;2022-07-12T02:11:24;94971.19;;;10.92;72.58
42705;BME280;28342;42.594;23.414;2022-07-12T02:13:49;94973.13;;;10.86;73.24
42705;BME280;28342;42.594;23.414;2022-07-12T02:16:16;94977.66;;;10.99;72.10
42705;BME280;28342;42.594;23.414;2022-07-12T02:18:41;94979.00;;;11.11;71.96
42705;BME280;28342;42.594;23.414;2022-07-12T02:21:07;94985.28;;;11.15;71.18
42705;BME280;28342;42.594;23.414;2022-07-12T02:23:32;94971.66;;;11.07;70.82
42705;BME280;28342;42.594;23.414;2022-07-12T02:25:57;94985.91;;;10.98;71.65
42705;BME280;28342;42.594;23.414;2022-07-12T02:28:23;94991.69;;;11.00;72.18
42705;BME280;28342;42.594;23.414;2022-07-12T02:30:48;94989.06;;;10.86;72.48
42705;BME280;28342;42.594;23.414;2022-07-12T02:33:14;94979.44;;;10.90;72.13
42705;BME280;28342;42.594;23.414;2022-07-12T02:35:42;94989.16;;;10.81;72.22
42705;BME280;28342;42.594;23.414;2022-07-12T02:38:08;94980.06;;;10.60;72.57
42705;BME280;28342;42.594;23.414;2022-07-12T02:40:33;94986.94;;;10.61;72.67
42705;BME280;28342;42.594;23.414;2022-07-12T02:43:17;94986.94;;;10.61;73.61
42705;BME280;28342;42.594;23.414;2022-07-12T02:45:43;94983.97;;;10.48;73.24
42705;BME280;28342;42.594;23.414;2022-07-12T02:48:08;94988.53;;;10.15;74.47
42705;BME280;28342;42.594;23.414;2022-07-12T02:50:35;94986.94;;;10.14;75.22
42705;BME280;28342;42.594;23.414;2022-07-12T02:53:03;94986.81;;;10.06;75.04
42705;BME280;28342;42.594;23.414;2022-07-12T02:55:28;94986.22;;;10.09;75.01
42705;BME280;28342;42.594;23.414;2022-07-12T02:57:53;94995.19;;;10.13;76.17
42705;BME280;28342;42.594;23.414;2022-07-12T03:00:19;94991.34;;;10.05;76.50
42705;BME280;28342;42.594;23.414;2022-07-12T03:02:44;95005.16;;;10.21;76.00
42705;BME280;28342;42.594;23.414;2022-07-12T03:05:10;95013.03;;;10.26;75.88
42705;BME280;28342;42.594;23.414;2022-07-12T03:07:35;95002.31;;;10.31;75.16
42705;BME280;28342;42.594;23.414;2022-07-12T03:10:00;95003.91;;;10.32;74.64
42705;BME280;28342;42.594;23.414;2022-07-12T03:12:26;94998.09;;;10.30;74.57
42705;BME280;28342;42.594;23.414;2022-07-12T03:14:51;95016.97;;;10.56;73.86
42705;BME280;28342;42.594;23.414;2022-07-12T03:17:17;95003.94;;;10.60;74.25
42705;BME280;28342;42.594;23.414;2022-07-12T03:19:42;95007.38;;;10.60;73.28
42705;BME280;28342;42.594;23.414;2022-07-12T03:22:07;95013.34;;;10.66;73.13
42705;BME280;28342;42.594;23.414;2022-07-12T03:24:33;95013.47;;;10.61;73.21
42705;BME280;28342;42.594;23.414;2022-07-12T03:26:58;95017.56;;;10.67;73.73
42705;BME280;28342;42.594;23.414;2022-07-12T03:29:24;95016.41;;;10.73;74.52
42705;BME280;28342;42.594;23.414;2022-07-12T03:31:49;95024.25;;;10.78;75.57
42705;BME280;28342;42.594;23.414;2022-07-12T03:34:14;95017.16;;;10.87;73.92
42705;BME280;28342;42.594;23.414;2022-07-12T03:36:40;95013.25;;;10.85;72.97
42705;BME280;28342;42.594;23.414;2022-07-12T03:39:05;95028.19;;;10.94;75.18
42705;BME280;28342;42.594;23.414;2022-07-12T03:41:30;95013.25;;;10.98;74.62
42705;BME280;28342;42.594;23.414;2022-07-12T03:43:56;95020.72;;;11.10;73.30
42705;BME280;28342;42.594;23.414;2022-07-12T03:46:21;95013.03;;;11.08;72.74
42705;BME280;28342;42.594;23.414;2022-07-12T03:48:47;95025.88;;;11.29;73.41
42705;BME280;28342;42.594;23.414;2022-07-12T03:51:12;95023.72;;;11.31;73.74
42705;BME280;28342;42.594;23.414;2022-07-12T03:53:37;95023.81;;;11.40;72.08
42705;BME280;28342;42.594;23.414;2022-07-12T03:56:03;95023.88;;;11.48;72.61
42705;BME280;28342;42.594;23.414;2022-07-12T03:58:28;95021.94;;;11.62;70.70
42705;BME280;28342;42.594;23.414;2022-07-12T04:00:54;95019.03;;;11.64;72.60
42705;BME280;28342;42.594;23.414;2022-07-12T04:03:19;95009.75;;;11.61;72.79
42705;BME280;28342;42.594;23.414;2022-07-12T04:05:45;95019.19;;;11.67;72.52
42705;BME280;28342;42.594;23.414;2022-07-12T04:08:10;95003.97;;;11.59;72.08
42705;BME280;28342;42.594;23.414;2022-07-12T04:10:35;95021.38;;;11.65;73.21
42705;BME280;28342;42.594;23.414;2022-07-12T04:13:01;95020.03;;;11.77;71.14
42705;BME280;28342;42.594;23.414;2022-07-12T04:15:26;95019.72;;;11.92;70.60
42705;BME280;28342;42.594;23.414;2022-07-12T04:17:52;95023.16;;;11.92;71.30
42705;BME280;28342;42.594;23.414;2022-07-12T04:20:17;95036.50;;;12.01;70.87
42705;BME280;28342;42.594;23.414;2022-07-12T04:22:43;95026.59;;;11.93;69.51
42705;BME280;28342;42.594;23.414;2022-07-12T04:25:08;95032.91;;;11.97;72.07
42705;BME280;28342;42.594;23.414;2022-07-12T04:27:34;95050.72;;;12.19;70.31
42705;BME280;28342;42.594;23.414;2022-07-12T04:30:00;95038.56;;;12.26;70.64
42705;BME280;28342;42.594;23.414;2022-07-12T04:32:25;95025.13;;;12.32;71.33
42705;BME280;28342;42.594;23.414;2022-07-12T04:34:51;95044.75;;;12.44;68.90
42705;BME280;28342;42.594;23.414;2022-07-12T04:37:16;95025.75;;;12.29;69.28
42705;BME280;28342;42.594;23.414;2022-07-12T04:39:42;95040.78;;;12.64;69.50
42705;BME280;28342;42.594;23.414;2022-07-12T04:42:07;95037.25;;;12.77;69.87
42705;BME280;28342;42.594;23.414;2022-07-12T04:44:32;95044.97;;;12.88;69.32
42705;BME280;28342;42.594;23.414;2022-07-12T04:46:58;95042.97;;;13.02;69.16
42705;BME280;28342;42.594;23.414;2022-07-12T04:49:23;95030.00;;;13.09;68.85
42705;BME280;28342;42.594;23.414;2022-07-12T04:51:49;95018.88;;;13.15;68.91
42705;BME280;28342;42.594;23.414;2022-07-12T04:54:14;95048.41;;;13.36;69.25
42705;BME280;28342;42.594;23.414;2022-07-12T04:56:40;95051.56;;;13.47;68.84
42705;BME280;28342;42.594;23.414;2022-07-12T04:59:05;95040.44;;;13.54;67.25
42705;BME280;28342;42.594;23.414;2022-07-12T05:01:31;95046.72;;;13.75;67.36
42705;BME280;28342;42.594;23.414;2022-07-12T05:03:57;95054.75;;;13.84;66.05
42705;BME280;28342;42.594;23.414;2022-07-12T05:06:23;95058.03;;;13.89;66.89
42705;BME280;28342;42.594;23.414;2022-07-12T05:08:48;95050.81;;;13.81;68.64
42705;BME280;28342;42.594;23.414;2022-07-12T05:11:14;95036.22;;;13.87;68.75
42705;BME280;28342;42.594;23.414;2022-07-12T05:13:39;95036.38;;;13.99;69.33
42705;BME280;28342;42.594;23.414;2022-07-12T05:16:08;95053.16;;;14.17;67.23
42705;BME280;28342;42.594;23.414;2022-07-12T05:18:34;95048.91;;;14.25;66.67
42705;BME280;28342;42.594;23.414;2022-07-12T05:21:00;95051.09;;;14.40;66.26
42705;BME280;28342;42.594;23.414;2022-07-12T05:23:26;95054.41;;;14.46;65.40
42705;BME280;28342;42.594;23.414;2022-07-12T05:25:52;95059.22;;;14.52;65.70
42705;BME280;28342;42.594;23.414;2022-07-12T05:28:18;95065.53;;;14.56;65.63
42705;BME280;28342;42.594;23.414;2022-07-12T05:30:43;95060.00;;;14.61;65.49
42705;BME280;28342;42.594;23.414;2022-07-12T05:33:09;95057.63;;;14.69;64.79
42705;BME280;28342;42.594;23.414;2022-07-12T05:35:34;95053.69;;;14.75;65.51
42705;BME280;28342;42.594;23.414;2022-07-12T05:38:00;95058.25;;;14.74;66.71
42705;BME280;28342;42.594;23.414;2022-07-12T05:40:26;95053.97;;;14.82;66.22
42705;BME280;28342;42.594;23.414;2022-07-12T05:42:51;95054.75;;;14.82;65.13
42705;BME280;28342;42.594;23.414;2022-07-12T05:45:17;95036.56;;;14.76;65.39
42705;BME280;28342;42.594;23.414;2022-07-12T05:47:42;95046.59;;;14.79;65.12
42705;BME280;28342;42.594;23.414;2022-07-12T05:50:08;95055.00;;;14.98;64.49
42705;BME280;28342;42.594;23.414;2022-07-12T05:52:33;95048.56;;;14.99;62.61
42705;BME280;28342;42.594;23.414;2022-07-12T05:55:17;95054.53;;;15.05;61.40
42705;BME280;28342;42.594;23.414;2022-07-12T05:57:43;95059.31;;;15.20;61.58
42705;BME280;28342;42.594;23.414;2022-07-12T06:00:09;95058.34;;;15.24;63.77
42705;BME280;28342;42.594;23.414;2022-07-12T06:02:34;95048.75;;;15.23;64.09
42705;BME280;28342;42.594;23.414;2022-07-12T06:05:00;95050.13;;;15.30;65.06
42705;BME280;28342;42.594;23.414;2022-07-12T06:07:25;95053.28;;;15.32;64.18
42705;BME280;28342;42.594;23.414;2022-07-12T06:09:51;95052.91;;;15.42;64.91
42705;BME280;28342;42.594;23.414;2022-07-12T06:12:16;95047.84;;;15.49;64.17
42705;BME280;28342;42.594;23.414;2022-07-12T06:14:42;95057.22;;;15.55;62.38
42705;BME280;28342;42.594;23.414;2022-07-12T06:17:07;95029.94;;;15.41;63.40
42705;BME280;28342;42.594;23.414;2022-07-12T06:19:33;95046.97;;;15.57;64.10
42705;BME280;28342;42.594;23.414;2022-07-12T06:21:58;95033.94;;;15.64;63.38
42705;BME280;28342;42.594;23.414;2022-07-12T06:24:24;95049.84;;;15.81;63.48
42705;BME280;28342;42.594;23.414;2022-07-12T06:26:49;95027.13;;;15.67;62.89
42705;BME280;28342;42.594;23.414;2022-07-12T06:29:15;95042.66;;;15.73;62.27
42705;BME280;28342;42.594;23.414;2022-07-12T06:31:40;95049.84;;;15.81;61.21
42705;BME280;28342;42.594;23.414;2022-07-12T06:34:05;95029.56;;;15.80;62.26
42705;BME280;28342;42.594;23.414;2022-07-12T06:36:31;95042.13;;;16.01;62.12
42705;BME280;28342;42.594;23.414;2022-07-12T06:38:56;95035.44;;;16.07;61.79
42705;BME280;28342;42.594;23.414;2022-07-12T06:41:22;95038.59;;;16.09;61.00
42705;BME280;28342;42.594;23.414;2022-07-12T06:43:47;95039.28;;;16.18;61.35
42705;BME280;28342;42.594;23.414;2022-07-12T06:46:12;95031.38;;;16.22;61.22
42705;BME280;28342;42.594;23.414;2022-07-12T06:48:38;95042.25;;;16.25;60.73
42705;BME280;28342;42.594;23.414;2022-07-12T06:51:03;95030.09;;;16.28;62.36
42705;BME280;28342;42.594;23.414;2022-07-12T06:53:29;95036.94;;;16.50;62.16
42705;BME280;28342;42.594;23.414;2022-07-12T06:55:54;95033.63;;;16.65;62.19
42705;BME280;28342;42.594;23.414;2022-07-12T06:58:19;95032.44;;;16.75;59.29
42705;BME280;28342;42.594;23.414;2022-07-12T07:00:45;95033.00;;;16.80;59.42
42705;BME280;28342;42.594;23.414;2022-07-12T07:03:10;95024.53;;;16.90;58.50
42705;BME280;28342;42.594;23.414;2022-07-12T07:05:36;95026.78;;;17.13;59.15
42705;BME280;28342;42.594;23.414;2022-07-12T07:08:05;95022.97;;;17.26;60.08
42705;BME280;28342;42.594;23.414;2022-07-12T07:10:30;95038.94;;;17.47;58.89
42705;BME280;28342;42.594;23.414;2022-07-12T07:12:56;95019.59;;;17.53;58.61
42705;BME280;28342;42.594;23.414;2022-07-12T07:15:21;95040.81;;;17.71;53.91
42705;BME280;28342;42.594;23.414;2022-07-12T07:17:47;95038.31;;;17.90;56.21
42705;BME280;28342;42.594;23.414;2022-07-12T07:20:12;95036.78;;;18.17;55.72
42705;BME280;28342;42.594;23.414;2022-07-12T07:22:38;95021.66;;;18.25;55.08
42705;BME280;28342;42.594;23.414;2022-07-12T07:25:05;95013.81;;;18.47;54.18
42705;BME280;28342;42.594;23.414;2022-07-12T07:27:31;95021.81;;;18.60;51.41
42705;BME280;28342;42.594;23.414;2022-07-12T07:29:56;95047.09;;;18.87;51.35
42705;BME280;28342;42.594;23.414;2022-07-12T07:32:40;95032.75;;;18.98;49.48
42705;BME280;28342;42.594;23.414;2022-07-12T07:35:06;95039.97;;;19.10;51.01
42705;BME280;28342;42.594;23.414;2022-07-12T07:37:33;95025.19;;;19.35;50.56
42705;BME280;28342;42.594;23.414;2022-07-12T07:39:58;95024.72;;;19.65;52.37
42705;BME280;28342;42.594;23.414;2022-07-12T07:42:24;95025.75;;;19.95;49.21
42705;BME280;28342;42.594;23.414;2022-07-12T07:44:49;95027.38;;;20.00;45.86
42705;BME280;28342;42.594;23.414;2022-07-12T07:47:15;95027.44;;;20.04;49.65
42705;BME280;28342;42.594;23.414;2022-07-12T07:49:40;95036.09;;;20.32;47.49
42705;BME280;28342;42.594;23.414;2022-07-12T07:52:06;95025.31;;;20.51;45.29
42705;BME280;28342;42.594;23.414;2022-07-12T07:54:31;95013.53;;;20.82;46.26
42705;BME280;28342;42.594;23.414;2022-07-12T07:56:56;95003.66;;;20.90;45.61
42705;BME280;28342;42.594;23.414;2022-07-12T07:59:22;95000.78;;;21.02;44.14
42705;BME280;28342;42.594;23.414;2022-07-12T08:01:50;95015.91;;;21.30;43.84
42705;BME280;28342;42.594;23.414;2022-07-12T08:04:20;95030.09;;;21.53;43.29
42705;BME280;28342;42.594;23.414;2022-07-12T08:06:47;95012.44;;;21.59;44.82
42705;BME280;28342;42.594;23.414;2022-07-12T08:09:13;95016.47;;;21.72;43.75
42705;BME280;28342;42.594;23.414;2022-07-12T08:11:38;95020.34;;;21.71;40.79
42705;BME280;28342;42.594;23.414;2022-07-12T08:14:04;95017.34;;;21.50;41.08
42705;BME280;28342;42.594;23.414;2022-07-12T08:16:30;95027.59;;;21.41;43.20
42705;BME280;28342;42.594;23.414;2022-07-12T08:18:56;95020.44;;;21.26;41.93
42705;BME280;28342;42.594;23.414;2022-07-12T08:21:22;95016.34;;;21.12;42.25
42705;BME280;28342;42.594;23.414;2022-07-12T08:23:48;95009.38;;;21.11;40.75
42705;BME280;28342;42.594;23.414;2022-07-12T08:26:14;95015.25;;;21.40;42.45
42705;BME280;28342;42.594;23.414;2022-07-12T08:28:39;95009.44;;;21.64;41.31
42705;BME280;28342;42.594;23.414;2022-07-12T08:31:05;94998.00;;;21.74;43.56
42705;BME280;28342;42.594;23.414;2022-07-12T08:33:30;94994.97;;;22.06;41.60
42705;BME280;28342;42.594;23.414;2022-07-12T08:35:56;94995.53;;;22.22;38.47
42705;BME280;28342;42.594;23.414;2022-07-12T08:38:21;95007.53;;;22.62;40.02
42705;BME280;28342;42.594;23.414;2022-07-12T08:40:47;95008.38;;;22.70;38.69
42705;BME280;28342;42.594;23.414;2022-07-12T08:43:12;95000.81;;;22.82;40.09
42705;BME280;28342;42.594;23.414;2022-07-12T08:45:38;95000.22;;;23.07;39.23
42705;BME280;28342;42.594;23.414;2022-07-12T08:48:06;94994.13;;;23.17;37.51
42705;BME280;28342;42.594;23.414;2022-07-12T08:50:32;94979.06;;;23.16;36.96
42705;BME280;28342;42.594;23.414;2022-07-12T08:52:58;94988.88;;;23.42;38.66
42705;BME280;28342;42.594;23.414;2022-07-12T08:57:50;94982.09;;;23.66;37.80
42705;BME280;28342;42.594;23.414;2022-07-12T09:00:16;94965.91;;;23.76;37.46
42705;BME280;28342;42.594;23.414;2022-07-12T09:02:51;94981.69;;;23.60;33.01
42705;BME280;28342;42.594;23.414;2022-07-12T09:05:29;94984.28;;;23.46;36.82
42705;BME280;28342;42.594;23.414;2022-07-12T09:08:06;94981.81;;;23.26;37.42
42705;BME280;28342;42.594;23.414;2022-07-12T09:10:50;94979.97;;;22.86;36.21
42705;BME280;28342;42.594;23.414;2022-07-12T09:13:17;94987.19;;;23.19;38.79
42705;BME280;28342;42.594;23.414;2022-07-12T09:15:43;94969.50;;;23.36;35.43
42705;BME280;28342;42.594;23.414;2022-07-12T09:18:08;94981.63;;;23.56;36.00
42705;BME280;28342;42.594;23.414;2022-07-12T09:20:42;94965.06;;;23.62;33.97
42705;BME280;28342;42.594;23.414;2022-07-12T09:23:12;94968.94;;;23.61;35.08
42705;BME280;28342;42.594;23.414;2022-07-12T09:25:38;94971.53;;;23.50;35.72
42705;BME280;28342;42.594;23.414;2022-07-12T09:28:06;94964.84;;;23.33;36.78
42705;BME280;28342;42.594;23.414;2022-07-12T09:30:34;94959.44;;;23.30;33.91
42705;BME280;28342;42.594;23.414;2022-07-12T09:33:01;94964.97;;;23.54;34.61
42705;BME280;28342;42.594;23.414;2022-07-12T09:36:02;94970.19;;;23.84;36.08
42705;BME280;28342;42.594;23.414;2022-07-12T09:38:48;94972.25;;;24.09;36.21
42705;BME280;28342;42.594;23.414;2022-07-12T09:41:19;94960.59;;;24.01;35.04
42705;BME280;28342;42.594;23.414;2022-07-12T09:43:45;94973.03;;;24.17;36.82
42705;BME280;28342;42.594;23.414;2022-07-12T09:46:11;94976.09;;;24.11;35.89
42705;BME280;28342;42.594;23.414;2022-07-12T09:48:37;94955.63;;;24.25;35.35
42705;BME280;28342;42.594;23.414;2022-07-12T09:51:03;94956.88;;;24.38;34.27
42705;BME280;28342;42.594;23.414;2022-07-12T09:53:38;94964.22;;;24.41;32.95
42705;BME280;28342;42.594;23.414;2022-07-12T09:56:05;94953.69;;;24.29;31.79
42705;BME280;28342;42.594;23.414;2022-07-12T09:58:39;94952.97;;;24.32;31.41
42705;BME280;28342;42.594;23.414;2022-07-12T10:01:06;94961.53;;;24.55;32.15
42705;BME280;28342;42.594;23.414;2022-07-12T10:03:32;94963.88;;;24.67;34.76
42705;BME280;28342;42.594;23.414;2022-07-12T10:06:01;94957.31;;;24.68;34.56
42705;BME280;28342;42.594;23.414;2022-07-12T10:08:28;94941.38;;;24.63;32.69
42705;BME280;28342;42.594;23.414;2022-07-12T10:10:54;94954.19;;;24.66;32.40
42705;BME280;28342;42.594;23.414;2022-07-12T10:13:21;94938.69;;;24.70;34.38
42705;BME280;28342;42.594;23.414;2022-07-12T10:15:47;94944.50;;;24.87;32.95
42705;BME280;28342;42.594;23.414;2022-07-12T10:18:18;94947.59;;;24.74;31.92
42705;BME280;28342;42.594;23.414;2022-07-12T10:20:46;94938.66;;;24.46;32.07
42705;BME280;28342;42.594;23.414;2022-07-12T10:23:34;94937.53;;;24.68;31.08
42705;BME280;28342;42.594;23.414;2022-07-12T10:29:12;94953.81;;;24.79;32.26
42705;BME280;28342;42.594;23.414;2022-07-12T10:31:44;94945.28;;;24.91;33.76
42705;BME280;28342;42.594;23.414;2022-07-12T10:34:24;94949.91;;;24.58;32.72
42705;BME280;28342;42.594;23.414;2022-07-12T10:39:22;94932.06;;;24.36;31.57
42705;BME280;28342;42.594;23.414;2022-07-12T10:44:39;94932.88;;;24.54;32.04
42705;BME280;28342;42.594;23.414;2022-07-12T10:47:06;94934.41;;;24.48;33.94
42705;BME280;28342;42.594;23.414;2022-07-12T10:49:33;94935.56;;;24.40;32.42
42705;BME280;28342;42.594;23.414;2022-07-12T10:57:38;94933.66;;;24.51;31.57
42705;BME280;28342;42.594;23.414;2022-07-12T11:00:04;94927.31;;;24.08;30.80
42705;BME280;28342;42.594;23.414;2022-07-12T11:02:30;94923.88;;;24.29;32.93
42705;BME280;28342;42.594;23.414;2022-07-12T11:04:56;94928.22;;;24.51;32.12
42705;BME280;28342;42.594;23.414;2022-07-12T11:07:23;94930.84;;;24.26;30.93
42705;BME280;28342;42.594;23.414;2022-07-12T11:09:53;94921.97;;;24.33;32.17
42705;BME280;28342;42.594;23.414;2022-07-12T11:12:18;94932.50;;;24.66;32.37
42705;BME280;28342;42.594;23.414;2022-07-12T11:14:45;94930.19;;;24.86;32.20
42705;BME280;28342;42.594;23.414;2022-07-12T11:17:11;94932.09;;;24.79;30.93
42705;BME280;28342;42.594;23.414;2022-07-12T11:19:37;94949.16;;;24.76;30.87
42705;BME280;28342;42.594;23.414;2022-07-12T11:22:02;94935.97;;;24.70;30.40
42705;BME280;28342;42.594;23.414;2022-07-12T11:24:32;94930.97;;;25.05;32.47
42705;BME280;28342;42.594;23.414;2022-07-12T11:27:00;94920.50;;;25.03;30.89
42705;BME280;28342;42.594;23.414;2022-07-12T11:29:25;94921.25;;;24.89;30.01
42705;BME280;28342;42.594;23.414;2022-07-12T11:32:00;94919.69;;;24.95;31.54
42705;BME280;28342;42.594;23.414;2022-07-12T11:34:26;94929.00;;;25.19;31.57
42705;BME280;28342;42.594;23.414;2022-07-12T11:37:01;94924.72;;;25.25;31.37
42705;BME280;28342;42.594;23.414;2022-07-12T11:39:38;94931.31;;;25.24;29.87
42705;BME280;28342;42.594;23.414;2022-07-12T11:42:04;94921.22;;;25.39;31.38
42705;BME280;28342;42.594;23.414;2022-07-12T11:44:47;94922.00;;;25.25;30.46
42705;BME280;28342;42.594;23.414;2022-07-12T11:47:14;94903.38;;;25.35;30.65
42705;BME280;28342;42.594;23.414;2022-07-12T11:49:44;94921.28;;;25.14;29.75
42705;BME280;28342;42.594;23.414;2022-07-12T11:52:12;94907.69;;;25.07;30.60
42705;BME280;28342;42.594;23.414;2022-07-12T11:54:38;94908.84;;;24.95;31.33
42705;BME280;28342;42.594;23.414;2022-07-12T11:57:08;94905.75;;;25.18;32.41
42705;BME280;28342;42.594;23.414;2022-07-12T11:59:34;94909.56;;;25.39;32.74
42705;BME280;28342;42.594;23.414;2022-07-12T12:02:08;94895.63;;;25.33;31.88
42705;BME280;28342;42.594;23.414;2022-07-12T12:04:47;94909.56;;;25.39;32.22
42705;BME280;28342;42.594;23.414;2022-07-12T12:07:13;94896.03;;;25.21;30.93
42705;BME280;28342;42.594;23.414;2022-07-12T12:10:09;94902.28;;;25.00;30.32
42705;BME280;28342;42.594;23.414;2022-07-12T12:12:55;94906.13;;;25.20;31.67
42705;BME280;28342;42.594;23.414;2022-07-12T12:15:33;94909.19;;;25.44;31.30
42705;BME280;28342;42.594;23.414;2022-07-12T12:18:03;94901.06;;;25.29;30.75
42705;BME280;28342;42.594;23.414;2022-07-12T12:23:15;94884.69;;;25.58;31.34
42705;BME280;28342;42.594;23.414;2022-07-12T12:25:41;94899.84;;;25.48;31.84
42705;BME280;28342;42.594;23.414;2022-07-12T12:28:07;94900.69;;;25.31;31.19
42705;BME280;28342;42.594;23.414;2022-07-12T12:30:35;94906.84;;;25.42;32.41
42705;BME280;28342;42.594;23.414;2022-07-12T12:33:03;94893.25;;;25.53;30.84
42705;BME280;28342;42.594;23.414;2022-07-12T12:35:38;94895.56;;;25.58;31.52
42705;BME280;28342;42.594;23.414;2022-07-12T12:38:14;94907.19;;;25.69;31.79
42705;BME280;28342;42.594;23.414;2022-07-12T12:40:49;94912.59;;;25.76;32.41
42705;BME280;28342;42.594;23.414;2022-07-12T12:43:18;94911.06;;;25.75;32.49
42705;BME280;28342;42.594;23.414;2022-07-12T12:45:55;94893.59;;;25.62;32.35
42705;BME280;28342;42.594;23.414;2022-07-12T12:48:23;94894.41;;;25.52;32.09
42705;BME280;28342;42.594;23.414;2022-07-12T12:50:50;94899.41;;;25.71;33.62
42705;BME280;28342;42.594;23.414;2022-07-12T12:53:19;94906.28;;;25.97;32.37
42705;BME280;28342;42.594;23.414;2022-07-12T12:55:47;94908.59;;;25.99;32.84
42705;BME280;28342;42.594;23.414;2022-07-12T12:58:14;94900.13;;;25.86;32.20
42705;BME280;28342;42.594;23.414;2022-07-12T13:00:42;94893.91;;;25.92;31.59
42705;BME280;28342;42.594;23.414;2022-07-12T13:03:10;94904.13;;;25.46;31.09
42705;BME280;28342;42.594;23.414;2022-07-12T13:05:36;94901.06;;;25.29;31.46
42705;BME280;28342;42.594;23.414;2022-07-12T13:08:06;94900.31;;;25.15;32.68
42705;BME280;28342;42.594;23.414;2022-07-12T13:10:33;94898.75;;;25.10;32.82